PWSweather.com
Personal Weather Stations
Station Observations
79674
AfterstegDE 79674

AfterstegDE 79674

Lat: 47.84344, Lon: 7.92844

Elevation: 809

Station Type: Davis Vantage 2 Aktive

Latest ConditionsUpdated 2:42:06 PM GMT+01:01 Thursday, May 28, 2015
Currently Today's Max Today's Min Today's Average
Temperature 65.1°F18.4°C 65.5°F18.6°C 39.6°F4.2°C 49.7°F9.8°C
Dew Point 44.4°F6.9°C 46.9°F8.3°C 36.7°F2.6°C 41.2°F5.1°C
Winds 4.0 mph SE6.4 kmh SE 6.0 mph SE9.7 kmh SE - 1.8 mph 2.9 kmh
Wind Gusts 6.9 mph11.1 kmh 10.1 mph16.3 kmh - -
Humidity 47% 92% 43% 75%
Pressure 30.05 in1017.6 mb 30.18 in1022.0 mb 30.05 in1017.6 mb -
Hour Temp Dew Point Humidity Winds Wind Gusts Pressure Precip Precip Rate Daily Precip Total
02:42 PM 65.1°F18.4°C 44.4°F6.9°C 47% 4.0 mph SE6.4 kmh SE 6.9 mph11.1 kmh 30.05 in1017.6 mb - 0.00 in0.0 mm 0.00 in0.0 mm
02:37 PM 64.9°F18.3°C 43.7°F6.5°C 46% 4.0 mph S6.4 kmh S -- 30.06 in1017.9 mb - 0.00 in0.0 mm 0.00 in0.0 mm
02:32 PM 65.5°F18.6°C 43.5°F6.4°C 45% 4.0 mph S6.4 kmh S 8.9 mph14.3 kmh 30.06 in1017.9 mb - 0.00 in0.0 mm 0.00 in0.0 mm
02:27 PM 65.1°F18.4°C 43.9°F6.6°C 46% 4.9 mph NE7.9 kmh NE 6.0 mph9.7 kmh 30.06 in1017.9 mb - 0.00 in0.0 mm 0.00 in0.0 mm
02:22 PM 64.9°F18.3°C 43.7°F6.5°C 46% 4.9 mph S7.9 kmh S 4.9 mph7.9 kmh 30.06 in1017.9 mb - 0.00 in0.0 mm 0.00 in0.0 mm
02:17 PM 64.9°F18.3°C 41.9°F5.5°C 43% 4.0 mph SSE6.4 kmh SSE 6.0 mph9.7 kmh 30.06 in1017.9 mb - 0.00 in0.0 mm 0.00 in0.0 mm
02:12 PM 65.1°F18.4°C 43.3°F6.3°C 45% 4.0 mph SSE6.4 kmh SSE 6.9 mph11.1 kmh 30.06 in1017.9 mb - 0.00 in0.0 mm 0.00 in0.0 mm
02:07 PM 64.6°F18.1°C 43.3°F6.3°C 46% 4.9 mph S7.9 kmh S 4.0 mph6.4 kmh 30.06 in1017.9 mb - 0.00 in0.0 mm 0.00 in0.0 mm
02:02 PM 64.4°F18.0°C 44.2°F6.8°C 48% 4.9 mph ESE7.9 kmh ESE 4.0 mph6.4 kmh 30.06 in1017.9 mb - 0.00 in0.0 mm 0.00 in0.0 mm
01:57 PM 64.2°F17.9°C 44.1°F6.7°C 48% 4.9 mph SW7.9 kmh SW 6.0 mph9.7 kmh 30.07 in1018.3 mb - 0.00 in0.0 mm 0.00 in0.0 mm
01:52 PM 64.0°F17.8°C 43.3°F6.3°C 47% 6.0 mph E9.7 kmh E 2.0 mph3.2 kmh 30.07 in1018.3 mb - 0.00 in0.0 mm 0.00 in0.0 mm
01:47 PM 64.2°F17.9°C 43.0°F6.1°C 46% 6.0 mph ESE9.7 kmh ESE 6.9 mph11.1 kmh 30.06 in1017.9 mb - 0.00 in0.0 mm 0.00 in0.0 mm
01:42 PM 64.0°F17.8°C 43.3°F6.3°C 47% 6.0 mph SE9.7 kmh SE 8.1 mph13.0 kmh 30.06 in1017.9 mb - 0.00 in0.0 mm 0.00 in0.0 mm
01:37 PM 63.9°F17.7°C 42.6°F5.9°C 46% 6.0 mph SE9.7 kmh SE 4.9 mph7.9 kmh 30.06 in1017.9 mb - 0.00 in0.0 mm 0.00 in0.0 mm
01:32 PM 63.9°F17.7°C 43.7°F6.5°C 48% 6.0 mph S9.7 kmh S 2.0 mph3.2 kmh 30.07 in1018.3 mb - 0.00 in0.0 mm 0.00 in0.0 mm
01:27 PM 63.9°F17.7°C 45.3°F7.4°C 51% 6.0 mph SSE9.7 kmh SSE 4.9 mph7.9 kmh 30.07 in1018.3 mb - 0.00 in0.0 mm 0.00 in0.0 mm
01:22 PM 63.7°F17.6°C 45.1°F7.3°C 51% 4.9 mph ESE7.9 kmh ESE 2.0 mph3.2 kmh 30.07 in1018.3 mb - 0.00 in0.0 mm 0.00 in0.0 mm
01:17 PM 63.7°F17.6°C 45.7°F7.6°C 52% 4.0 mph ESE6.4 kmh ESE 8.1 mph13.0 kmh 30.07 in1018.3 mb - 0.00 in0.0 mm 0.00 in0.0 mm
01:12 PM 64.0°F17.8°C 45.0°F7.2°C 50% 4.9 mph SE7.9 kmh SE 4.9 mph7.9 kmh 30.07 in1018.3 mb - 0.00 in0.0 mm 0.00 in0.0 mm
01:07 PM 63.7°F17.6°C 46.2°F7.9°C 53% 4.9 mph E7.9 kmh E 2.0 mph3.2 kmh 30.07 in1018.3 mb - 0.00 in0.0 mm 0.00 in0.0 mm
01:02 PM 63.3°F17.4°C 45.3°F7.4°C 52% 4.0 mph SE6.4 kmh SE 4.9 mph7.9 kmh 30.07 in1018.3 mb - 0.00 in0.0 mm 0.00 in0.0 mm
12:57 PM 63.0°F17.2°C 46.0°F7.8°C 54% 4.9 mph SE7.9 kmh SE 8.1 mph13.0 kmh 30.07 in1018.3 mb - 0.00 in0.0 mm 0.00 in0.0 mm
12:52 PM 62.6°F17.0°C 45.7°F7.6°C 54% 4.0 mph SE6.4 kmh SE 4.0 mph6.4 kmh 30.08 in1018.6 mb - 0.00 in0.0 mm 0.00 in0.0 mm
12:47 PM 62.2°F16.8°C 45.9°F7.7°C 55% 2.9 mph SSE4.7 kmh SSE 6.9 mph11.1 kmh 30.08 in1018.6 mb - 0.00 in0.0 mm 0.00 in0.0 mm
12:42 PM 61.9°F16.6°C 45.5°F7.5°C 55% 4.0 mph SSE6.4 kmh SSE -- 30.08 in1018.6 mb - 0.00 in0.0 mm 0.00 in0.0 mm
12:37 PM 61.9°F16.6°C 46.0°F7.8°C 56% 4.9 mph SSW7.9 kmh SSW 6.0 mph9.7 kmh 30.09 in1019.0 mb - 0.00 in0.0 mm 0.00 in0.0 mm
12:32 PM 61.9°F16.6°C 45.1°F7.3°C 54% 4.9 mph SE7.9 kmh SE 4.0 mph6.4 kmh 30.08 in1018.6 mb - 0.00 in0.0 mm 0.00 in0.0 mm
12:27 PM 61.9°F16.6°C 45.1°F7.3°C 54% 4.9 mph SE7.9 kmh SE 6.0 mph9.7 kmh 30.08 in1018.6 mb - 0.00 in0.0 mm 0.00 in0.0 mm
12:22 PM 61.5°F16.4°C 45.7°F7.6°C 56% 4.9 mph SE7.9 kmh SE 6.9 mph11.1 kmh 30.09 in1019.0 mb - 0.00 in0.0 mm 0.00 in0.0 mm
12:17 PM 61.2°F16.2°C 44.4°F6.9°C 54% 4.0 mph E6.4 kmh E 0.9 mph1.4 kmh 30.09 in1019.0 mb - 0.00 in0.0 mm 0.00 in0.0 mm
12:12 PM 61.5°F16.4°C 45.7°F7.6°C 56% 4.0 mph ESE6.4 kmh ESE 4.0 mph6.4 kmh 30.09 in1019.0 mb - 0.00 in0.0 mm 0.00 in0.0 mm
12:07 PM 61.2°F16.2°C 45.3°F7.4°C 56% 4.0 mph S6.4 kmh S 2.0 mph3.2 kmh 30.09 in1019.0 mb - 0.00 in0.0 mm 0.00 in0.0 mm
12:02 PM 61.0°F16.1°C 46.0°F7.8°C 58% 6.0 mph SE9.7 kmh SE 4.0 mph6.4 kmh 30.09 in1019.0 mb - 0.00 in0.0 mm 0.00 in0.0 mm
11:57 AM 60.4°F15.8°C 45.1°F7.3°C 57% 4.9 mph S7.9 kmh S 4.9 mph7.9 kmh 30.09 in1019.0 mb - 0.00 in0.0 mm 0.00 in0.0 mm
11:52 AM 60.4°F15.8°C 45.7°F7.6°C 58% 4.0 mph S6.4 kmh S 4.0 mph6.4 kmh 30.09 in1019.0 mb - 0.00 in0.0 mm 0.00 in0.0 mm
11:47 AM 60.1°F15.6°C 45.3°F7.4°C 58% 2.9 mph SE4.7 kmh SE 4.0 mph6.4 kmh 30.09 in1019.0 mb - 0.00 in0.0 mm 0.00 in0.0 mm
11:42 AM 59.9°F15.5°C 46.0°F7.8°C 60% 4.0 mph SSE6.4 kmh SSE 4.0 mph6.4 kmh 30.10 in1019.3 mb - 0.00 in0.0 mm 0.00 in0.0 mm
11:37 AM 59.9°F15.5°C 45.5°F7.5°C 59% 4.9 mph SSE7.9 kmh SSE 6.0 mph9.7 kmh 30.10 in1019.3 mb - 0.00 in0.0 mm 0.00 in0.0 mm
11:32 AM 59.9°F15.5°C 45.1°F7.3°C 58% 2.9 mph SSW4.7 kmh SSW 6.9 mph11.1 kmh 30.10 in1019.3 mb - 0.00 in0.0 mm 0.00 in0.0 mm
11:27 AM 60.1°F15.6°C 46.2°F7.9°C 60% 2.9 mph SE4.7 kmh SE 0.9 mph1.4 kmh 30.10 in1019.3 mb - 0.00 in0.0 mm 0.00 in0.0 mm
11:22 AM 60.3°F15.7°C 46.4°F8.0°C 60% 2.9 mph SSW4.7 kmh SSW 4.0 mph6.4 kmh 30.10 in1019.3 mb - 0.00 in0.0 mm 0.00 in0.0 mm
11:17 AM 60.1°F15.6°C 46.9°F8.3°C 62% 2.9 mph ENE4.7 kmh ENE 0.9 mph1.4 kmh 30.10 in1019.3 mb - 0.00 in0.0 mm 0.00 in0.0 mm
11:12 AM 59.9°F15.5°C 45.5°F7.5°C 59% 4.0 mph SSE6.4 kmh SSE 2.0 mph3.2 kmh 30.10 in1019.3 mb - 0.00 in0.0 mm 0.00 in0.0 mm
11:07 AM 59.9°F15.5°C 46.4°F8.0°C 61% 4.0 mph S6.4 kmh S 8.9 mph14.3 kmh 30.10 in1019.3 mb - 0.00 in0.0 mm 0.00 in0.0 mm
11:02 AM 59.5°F15.3°C 46.0°F7.8°C 61% 4.0 mph SE6.4 kmh SE 2.9 mph4.7 kmh 30.10 in1019.3 mb - 0.00 in0.0 mm 0.00 in0.0 mm
10:57 AM 59.4°F15.2°C 46.4°F8.0°C 62% 2.9 mph SSE4.7 kmh SSE 6.0 mph9.7 kmh 30.10 in1019.3 mb - 0.00 in0.0 mm 0.00 in0.0 mm
10:52 AM 59.5°F15.3°C 45.7°F7.6°C 60% 2.9 mph ESE4.7 kmh ESE 2.9 mph4.7 kmh 30.11 in1019.6 mb - 0.00 in0.0 mm 0.00 in0.0 mm
10:47 AM 59.5°F15.3°C 46.0°F7.8°C 61% 2.9 mph S4.7 kmh S 2.9 mph4.7 kmh 30.11 in1019.6 mb - 0.00 in0.0 mm 0.00 in0.0 mm
10:42 AM 59.4°F15.2°C 45.9°F7.7°C 61% 4.0 mph S6.4 kmh S 4.0 mph6.4 kmh 30.11 in1019.6 mb - 0.00 in0.0 mm 0.00 in0.0 mm
10:37 AM 59.2°F15.1°C 46.6°F8.1°C 63% 4.0 mph S6.4 kmh S 2.0 mph3.2 kmh 30.11 in1019.6 mb - 0.00 in0.0 mm 0.00 in0.0 mm
10:32 AM 58.8°F14.9°C 45.9°F7.7°C 62% 2.9 mph SSE4.7 kmh SSE 10.1 mph16.3 kmh 30.11 in1019.6 mb - 0.00 in0.0 mm 0.00 in0.0 mm
10:27 AM 58.5°F14.7°C 45.9°F7.7°C 63% 2.9 mph SSE4.7 kmh SSE 2.0 mph3.2 kmh 30.11 in1019.6 mb - 0.00 in0.0 mm 0.00 in0.0 mm
10:22 AM 58.3°F14.6°C 45.3°F7.4°C 62% 4.0 mph SSW6.4 kmh SSW 2.9 mph4.7 kmh 30.11 in1019.6 mb - 0.00 in0.0 mm 0.00 in0.0 mm
10:17 AM 58.1°F14.5°C 45.5°F7.5°C 63% 2.9 mph SE4.7 kmh SE 4.0 mph6.4 kmh 30.12 in1020.0 mb - 0.00 in0.0 mm 0.00 in0.0 mm
10:12 AM 57.7°F14.3°C 44.8°F7.1°C 62% 2.9 mph SE4.7 kmh SE 2.9 mph4.7 kmh 30.12 in1020.0 mb - 0.00 in0.0 mm 0.00 in0.0 mm
10:07 AM 57.7°F14.3°C 44.8°F7.1°C 62% 2.9 mph S4.7 kmh S 2.0 mph3.2 kmh 30.12 in1020.0 mb - 0.00 in0.0 mm 0.00 in0.0 mm
10:02 AM 57.4°F14.1°C 45.3°F7.4°C 64% 2.9 mph SSE4.7 kmh SSE -- 30.12 in1020.0 mb - 0.00 in0.0 mm 0.00 in0.0 mm
09:57 AM 57.0°F13.9°C 43.7°F6.5°C 61% 2.9 mph S4.7 kmh S 6.9 mph11.1 kmh 30.12 in1020.0 mb - 0.00 in0.0 mm 0.00 in0.0 mm
09:47 AM 57.0°F13.9°C 43.7°F6.5°C 61% 2.9 mph S4.7 kmh S 4.9 mph7.9 kmh 30.12 in1020.0 mb - 0.00 in0.0 mm 0.00 in0.0 mm
09:42 AM 57.0°F13.9°C 44.6°F7.0°C 63% 4.0 mph SE6.4 kmh SE 4.0 mph6.4 kmh 30.12 in1020.0 mb - 0.00 in0.0 mm 0.00 in0.0 mm
09:37 AM 56.8°F13.8°C 44.4°F6.9°C 63% 4.0 mph S6.4 kmh S 2.9 mph4.7 kmh 30.12 in1020.0 mb - 0.00 in0.0 mm 0.00 in0.0 mm
09:32 AM 56.5°F13.6°C 44.1°F6.7°C 63% 4.0 mph ESE6.4 kmh ESE 2.9 mph4.7 kmh 30.13 in1020.3 mb - 0.00 in0.0 mm 0.00 in0.0 mm
09:27 AM 55.9°F13.3°C 43.9°F6.6°C 64% 4.0 mph SE6.4 kmh SE 6.0 mph9.7 kmh 30.12 in1020.0 mb - 0.00 in0.0 mm 0.00 in0.0 mm
09:22 AM 55.9°F13.3°C 43.5°F6.4°C 63% 4.0 mph SE6.4 kmh SE 6.0 mph9.7 kmh 30.13 in1020.3 mb - 0.00 in0.0 mm 0.00 in0.0 mm
09:17 AM 55.8°F13.2°C 43.7°F6.5°C 64% 4.0 mph SE6.4 kmh SE 4.9 mph7.9 kmh 30.12 in1020.0 mb - 0.00 in0.0 mm 0.00 in0.0 mm
09:12 AM 55.4°F13.0°C 43.0°F6.1°C 63% 4.0 mph ESE6.4 kmh ESE 2.9 mph4.7 kmh 30.13 in1020.3 mb - 0.00 in0.0 mm 0.00 in0.0 mm
09:07 AM 55.0°F12.8°C 43.2°F6.2°C 64% 2.9 mph SE4.7 kmh SE 4.0 mph6.4 kmh 30.13 in1020.3 mb - 0.00 in0.0 mm 0.00 in0.0 mm
09:02 AM 54.9°F12.7°C 43.3°F6.3°C 65% 2.9 mph S4.7 kmh S 2.0 mph3.2 kmh 30.13 in1020.3 mb - 0.00 in0.0 mm 0.00 in0.0 mm
08:57 AM 54.7°F12.6°C 43.5°F6.4°C 66% 2.9 mph SE4.7 kmh SE 4.0 mph6.4 kmh 30.13 in1020.3 mb - 0.00 in0.0 mm 0.00 in0.0 mm
08:52 AM 54.5°F12.5°C 43.3°F6.3°C 66% 2.9 mph SSE4.7 kmh SSE 4.0 mph6.4 kmh 30.13 in1020.3 mb - 0.00 in0.0 mm 0.00 in0.0 mm
08:47 AM 54.3°F12.4°C 43.2°F6.2°C 66% 2.9 mph SSE4.7 kmh SSE 4.9 mph7.9 kmh 30.13 in1020.3 mb - 0.00 in0.0 mm 0.00 in0.0 mm
08:42 AM 54.0°F12.2°C 43.3°F6.3°C 67% 2.9 mph SE4.7 kmh SE 2.9 mph4.7 kmh 30.13 in1020.3 mb - 0.00 in0.0 mm 0.00 in0.0 mm
08:37 AM 53.8°F12.1°C 43.2°F6.2°C 67% 2.9 mph SE4.7 kmh SE 2.9 mph4.7 kmh 30.13 in1020.3 mb - 0.00 in0.0 mm 0.00 in0.0 mm
08:32 AM 53.4°F11.9°C 42.8°F6.0°C 67% 2.9 mph SSE4.7 kmh SSE 2.0 mph3.2 kmh 30.13 in1020.3 mb - 0.00 in0.0 mm 0.00 in0.0 mm
08:27 AM 53.2°F11.8°C 43.0°F6.1°C 68% 2.0 mph SSE3.2 kmh SSE 4.0 mph6.4 kmh 30.13 in1020.3 mb - 0.00 in0.0 mm 0.00 in0.0 mm
08:22 AM 53.1°F11.7°C 42.8°F6.0°C 68% 2.0 mph SE3.2 kmh SE -- 30.13 in1020.3 mb - 0.00 in0.0 mm 0.00 in0.0 mm
08:17 AM 52.3°F11.3°C 43.2°F6.2°C 71% 2.0 mph SE3.2 kmh SE 2.0 mph3.2 kmh 30.13 in1020.3 mb - 0.00 in0.0 mm 0.00 in0.0 mm
08:12 AM 52.0°F11.1°C 42.4°F5.8°C 70% 2.9 mph SE4.7 kmh SE 2.0 mph3.2 kmh 30.13 in1020.3 mb - 0.00 in0.0 mm 0.00 in0.0 mm
08:07 AM 51.4°F10.8°C 42.4°F5.8°C 71% 2.0 mph ESE3.2 kmh ESE -- 30.13 in1020.3 mb - 0.00 in0.0 mm 0.00 in0.0 mm
08:02 AM 50.9°F10.5°C 43.0°F6.1°C 74% 0.9 mph ESE1.4 kmh ESE 4.0 mph6.4 kmh 30.13 in1020.3 mb - 0.00 in0.0 mm 0.00 in0.0 mm
07:57 AM 50.2°F10.1°C 43.3°F6.3°C 77% 0.9 mph SE1.4 kmh SE -- 30.13 in1020.3 mb - 0.00 in0.0 mm 0.00 in0.0 mm
07:52 AM 49.5°F9.7°C 44.2°F6.8°C 82% Calm Calm -- 30.14 in1020.7 mb - 0.00 in0.0 mm 0.00 in0.0 mm
07:47 AM 48.7°F9.3°C 43.9°F6.6°C 83% Calm Calm -- 30.14 in1020.7 mb - 0.00 in0.0 mm 0.00 in0.0 mm
07:42 AM 48.2°F9.0°C 43.9°F6.6°C 85% Calm Calm -- 30.14 in1020.7 mb - 0.00 in0.0 mm 0.00 in0.0 mm
07:37 AM 47.5°F8.6°C 43.9°F6.6°C 87% Calm Calm -- 30.14 in1020.7 mb - 0.00 in0.0 mm 0.00 in0.0 mm
07:32 AM 46.6°F8.1°C 43.2°F6.2°C 88% Calm Calm -- 30.14 in1020.7 mb - 0.00 in0.0 mm 0.00 in0.0 mm
07:27 AM 46.0°F7.8°C 43.0°F6.1°C 89% Calm Calm -- 30.14 in1020.7 mb - 0.00 in0.0 mm 0.00 in0.0 mm
07:22 AM 45.3°F7.4°C 42.6°F5.9°C 90% Calm Calm 0.9 mph1.4 kmh 30.14 in1020.7 mb - 0.00 in0.0 mm 0.00 in0.0 mm
07:17 AM 44.8°F7.1°C 42.1°F5.6°C 90% Calm Calm -- 30.14 in1020.7 mb - 0.00 in0.0 mm 0.00 in0.0 mm
07:12 AM 44.2°F6.8°C 41.5°F5.3°C 90% Calm Calm -- 30.14 in1020.7 mb - 0.00 in0.0 mm 0.00 in0.0 mm
07:07 AM 43.5°F6.4°C 41.0°F5.0°C 91% Calm Calm -- 30.14 in1020.7 mb - 0.00 in0.0 mm 0.00 in0.0 mm
07:02 AM 43.2°F6.2°C 40.6°F4.8°C 91% Calm Calm -- 30.13 in1020.3 mb - 0.00 in0.0 mm 0.00 in0.0 mm
06:57 AM 43.0°F6.1°C 40.5°F4.7°C 91% Calm Calm -- 30.14 in1020.7 mb - 0.00 in0.0 mm 0.00 in0.0 mm
06:52 AM 42.6°F5.9°C 40.1°F4.5°C 91% Calm Calm -- 30.14 in1020.7 mb - 0.00 in0.0 mm 0.00 in0.0 mm
06:47 AM 42.4°F5.8°C 39.9°F4.4°C 91% Calm Calm -- 30.13 in1020.3 mb - 0.00 in0.0 mm 0.00 in0.0 mm
06:42 AM 42.3°F5.7°C 39.7°F4.3°C 91% Calm Calm -- 30.14 in1020.7 mb - 0.00 in0.0 mm 0.00 in0.0 mm
06:37 AM 42.1°F5.6°C 39.9°F4.4°C 92% Calm Calm -- 30.14 in1020.7 mb - 0.00 in0.0 mm 0.00 in0.0 mm
06:32 AM 41.9°F5.5°C 39.7°F4.3°C 92% Calm Calm -- 30.14 in1020.7 mb - 0.00 in0.0 mm 0.00 in0.0 mm
06:27 AM 41.7°F5.4°C 39.6°F4.2°C 92% Calm Calm -- 30.14 in1020.7 mb - 0.00 in0.0 mm 0.00 in0.0 mm
06:22 AM 41.5°F5.3°C 39.4°F4.1°C 92% Calm Calm -- 30.13 in1020.3 mb - 0.00 in0.0 mm 0.00 in0.0 mm
06:17 AM 41.4°F5.2°C 39.2°F4.0°C 92% Calm Calm -- 30.13 in1020.3 mb - 0.00 in0.0 mm 0.00 in0.0 mm
06:12 AM 41.2°F5.1°C 39.0°F3.9°C 92% Calm Calm -- 30.14 in1020.7 mb - 0.00 in0.0 mm 0.00 in0.0 mm
06:07 AM 40.8°F4.9°C 38.7°F3.7°C 92% Calm Calm -- 30.13 in1020.3 mb - 0.00 in0.0 mm 0.00 in0.0 mm
06:02 AM 40.6°F4.8°C 38.5°F3.6°C 92% Calm Calm -- 30.14 in1020.7 mb - 0.00 in0.0 mm 0.00 in0.0 mm
05:57 AM 40.5°F4.7°C 38.1°F3.4°C 91% Calm Calm -- 30.13 in1020.3 mb - 0.00 in0.0 mm 0.00 in0.0 mm
05:52 AM 40.3°F4.6°C 37.9°F3.3°C 91% Calm Calm -- 30.13 in1020.3 mb - 0.00 in0.0 mm 0.00 in0.0 mm
05:47 AM 40.1°F4.5°C 37.8°F3.2°C 91% Calm Calm -- 30.13 in1020.3 mb - 0.00 in0.0 mm 0.00 in0.0 mm
05:42 AM 39.9°F4.4°C 37.6°F3.1°C 91% Calm Calm -- 30.13 in1020.3 mb - 0.00 in0.0 mm 0.00 in0.0 mm
05:37 AM 39.9°F4.4°C 37.6°F3.1°C 91% Calm Calm -- 30.13 in1020.3 mb - 0.00 in0.0 mm 0.00 in0.0 mm
05:32 AM 39.9°F4.4°C 37.6°F3.1°C 91% Calm Calm -- 30.13 in1020.3 mb - 0.00 in0.0 mm 0.00 in0.0 mm
05:27 AM 39.7°F4.3°C 37.4°F3.0°C 91% Calm Calm -- 30.13 in1020.3 mb - 0.00 in0.0 mm 0.00 in0.0 mm
05:17 AM 39.7°F4.3°C 37.4°F3.0°C 91% Calm Calm -- 30.13 in1020.3 mb - 0.00 in0.0 mm 0.00 in0.0 mm
05:12 AM 39.7°F4.3°C 37.4°F3.0°C 91% Calm Calm -- 30.13 in1020.3 mb - 0.00 in0.0 mm 0.00 in0.0 mm
05:02 AM 39.6°F4.2°C 37.2°F2.9°C 91% Calm Calm -- 30.14 in1020.7 mb - 0.00 in0.0 mm 0.00 in0.0 mm
04:57 AM 39.6°F4.2°C 37.2°F2.9°C 91% Calm Calm -- 30.14 in1020.7 mb - 0.00 in0.0 mm 0.00 in0.0 mm
04:52 AM 39.6°F4.2°C 37.2°F2.9°C 91% Calm Calm -- 30.13 in1020.3 mb - 0.00 in0.0 mm 0.00 in0.0 mm
04:47 AM 39.6°F4.2°C 37.2°F2.9°C 91% Calm Calm -- 30.14 in1020.7 mb - 0.00 in0.0 mm 0.00 in0.0 mm
04:42 AM 39.6°F4.2°C 37.2°F2.9°C 91% Calm Calm -- 30.13 in1020.3 mb - 0.00 in0.0 mm 0.00 in0.0 mm
04:37 AM 39.6°F4.2°C 37.2°F2.9°C 91% Calm Calm -- 30.13 in1020.3 mb - 0.00 in0.0 mm 0.00 in0.0 mm
04:32 AM 39.6°F4.2°C 37.2°F2.9°C 91% Calm Calm -- 30.14 in1020.7 mb - 0.00 in0.0 mm 0.00 in0.0 mm
04:27 AM 39.6°F4.2°C 37.2°F2.9°C 91% Calm Calm -- 30.13 in1020.3 mb - 0.00 in0.0 mm 0.00 in0.0 mm
04:22 AM 39.6°F4.2°C 37.2°F2.9°C 91% Calm Calm -- 30.14 in1020.7 mb - 0.00 in0.0 mm 0.00 in0.0 mm
04:17 AM 39.6°F4.2°C 37.2°F2.9°C 91% Calm Calm -- 30.14 in1020.7 mb - 0.00 in0.0 mm 0.00 in0.0 mm
04:12 AM 39.6°F4.2°C 37.2°F2.9°C 91% Calm Calm -- 30.14 in1020.7 mb - 0.00 in0.0 mm 0.00 in0.0 mm
04:07 AM 39.6°F4.2°C 37.2°F2.9°C 91% Calm Calm -- 30.14 in1020.7 mb - 0.00 in0.0 mm 0.00 in0.0 mm
04:02 AM 39.6°F4.2°C 37.2°F2.9°C 91% Calm Calm -- 30.14 in1020.7 mb - 0.00 in0.0 mm 0.00 in0.0 mm
03:57 AM 39.6°F4.2°C 37.2°F2.9°C 91% Calm Calm -- 30.14 in1020.7 mb - 0.00 in0.0 mm 0.00 in0.0 mm
03:52 AM 39.6°F4.2°C 37.2°F2.9°C 91% Calm Calm -- 30.14 in1020.7 mb - 0.00 in0.0 mm 0.00 in0.0 mm
03:47 AM 39.6°F4.2°C 36.9°F2.7°C 90% Calm Calm -- 30.14 in1020.7 mb - 0.00 in0.0 mm 0.00 in0.0 mm
03:42 AM 39.6°F4.2°C 36.9°F2.7°C 90% Calm Calm -- 30.14 in1020.7 mb - 0.00 in0.0 mm 0.00 in0.0 mm
03:37 AM 39.6°F4.2°C 36.9°F2.7°C 90% Calm Calm -- 30.14 in1020.7 mb - 0.00 in0.0 mm 0.00 in0.0 mm
03:32 AM 39.6°F4.2°C 36.9°F2.7°C 90% Calm Calm -- 30.14 in1020.7 mb - 0.00 in0.0 mm 0.00 in0.0 mm
03:27 AM 39.7°F4.3°C 37.0°F2.8°C 90% Calm Calm -- 30.14 in1020.7 mb - 0.00 in0.0 mm 0.00 in0.0 mm
03:22 AM 39.7°F4.3°C 37.0°F2.8°C 90% Calm Calm -- 30.14 in1020.7 mb - 0.00 in0.0 mm 0.00 in0.0 mm
03:17 AM 39.7°F4.3°C 37.0°F2.8°C 90% Calm Calm -- 30.14 in1020.7 mb - 0.00 in0.0 mm 0.00 in0.0 mm
03:12 AM 39.7°F4.3°C 37.0°F2.8°C 90% Calm Calm -- 30.14 in1020.7 mb - 0.00 in0.0 mm 0.00 in0.0 mm
03:07 AM 39.7°F4.3°C 37.0°F2.8°C 90% Calm Calm -- 30.14 in1020.7 mb - 0.00 in0.0 mm 0.00 in0.0 mm
03:02 AM 39.7°F4.3°C 36.7°F2.6°C 89% Calm Calm -- 30.14 in1020.7 mb - 0.00 in0.0 mm 0.00 in0.0 mm
02:57 AM 39.7°F4.3°C 36.7°F2.6°C 89% Calm Calm -- 30.14 in1020.7 mb - 0.00 in0.0 mm 0.00 in0.0 mm
02:52 AM 39.7°F4.3°C 36.7°F2.6°C 89% Calm Calm -- 30.14 in1020.7 mb - 0.00 in0.0 mm 0.00 in0.0 mm
02:47 AM 39.9°F4.4°C 36.9°F2.7°C 89% Calm Calm -- 30.14 in1020.7 mb - 0.00 in0.0 mm 0.00 in0.0 mm
02:42 AM 39.9°F4.4°C 36.9°F2.7°C 89% Calm Calm -- 30.14 in1020.7 mb - 0.00 in0.0 mm 0.00 in0.0 mm
02:37 AM 39.9°F4.4°C 36.9°F2.7°C 89% Calm Calm -- 30.15 in1021.0 mb - 0.00 in0.0 mm 0.00 in0.0 mm
02:32 AM 40.1°F4.5°C 37.0°F2.8°C 89% Calm Calm -- 30.15 in1021.0 mb - 0.00 in0.0 mm 0.00 in0.0 mm
02:27 AM 40.1°F4.5°C 37.0°F2.8°C 89% Calm Calm -- 30.15 in1021.0 mb - 0.00 in0.0 mm 0.00 in0.0 mm
02:22 AM 40.3°F4.6°C 37.2°F2.9°C 89% Calm Calm -- 30.15 in1021.0 mb - 0.00 in0.0 mm 0.00 in0.0 mm
02:17 AM 40.3°F4.6°C 37.0°F2.8°C 88% Calm Calm -- 30.15 in1021.0 mb - 0.00 in0.0 mm 0.00 in0.0 mm
02:12 AM 40.3°F4.6°C 37.0°F2.8°C 88% Calm Calm -- 30.15 in1021.0 mb - 0.00 in0.0 mm 0.00 in0.0 mm
02:07 AM 40.5°F4.7°C 37.2°F2.9°C 88% Calm Calm -- 30.15 in1021.0 mb - 0.00 in0.0 mm 0.00 in0.0 mm
02:02 AM 40.5°F4.7°C 37.2°F2.9°C 88% Calm Calm -- 30.15 in1021.0 mb - 0.00 in0.0 mm 0.00 in0.0 mm
01:57 AM 40.5°F4.7°C 37.2°F2.9°C 88% Calm Calm -- 30.16 in1021.3 mb - 0.00 in0.0 mm 0.00 in0.0 mm
01:52 AM 40.5°F4.7°C 37.2°F2.9°C 88% Calm Calm -- 30.15 in1021.0 mb - 0.00 in0.0 mm 0.00 in0.0 mm
01:47 AM 40.6°F4.8°C 37.4°F3.0°C 88% Calm Calm -- 30.16 in1021.3 mb - 0.00 in0.0 mm 0.00 in0.0 mm
01:42 AM 40.6°F4.8°C 37.0°F2.8°C 87% Calm Calm -- 30.16 in1021.3 mb - 0.00 in0.0 mm 0.00 in0.0 mm
01:37 AM 40.6°F4.8°C 37.0°F2.8°C 87% Calm Calm -- 30.16 in1021.3 mb - 0.00 in0.0 mm 0.00 in0.0 mm
01:32 AM 40.6°F4.8°C 37.0°F2.8°C 87% Calm Calm -- 30.16 in1021.3 mb - 0.00 in0.0 mm 0.00 in0.0 mm
01:27 AM 40.8°F4.9°C 37.2°F2.9°C 87% Calm Calm -- 30.16 in1021.3 mb - 0.00 in0.0 mm 0.00 in0.0 mm
01:22 AM 40.8°F4.9°C 37.2°F2.9°C 87% Calm Calm -- 30.16 in1021.3 mb - 0.00 in0.0 mm 0.00 in0.0 mm
01:17 AM 41.0°F5.0°C 37.4°F3.0°C 87% Calm Calm -- 30.16 in1021.3 mb - 0.00 in0.0 mm 0.00 in0.0 mm
01:12 AM 41.2°F5.1°C 37.6°F3.1°C 87% Calm Calm -- 30.17 in1021.7 mb - 0.00 in0.0 mm 0.00 in0.0 mm
01:07 AM 41.2°F5.1°C 37.4°F3.0°C 86% Calm Calm -- 30.17 in1021.7 mb - 0.00 in0.0 mm 0.00 in0.0 mm
01:02 AM 41.2°F5.1°C 37.4°F3.0°C 86% Calm Calm -- 30.17 in1021.7 mb - 0.00 in0.0 mm 0.00 in0.0 mm
12:57 AM 41.4°F5.2°C 37.6°F3.1°C 86% Calm Calm -- 30.17 in1021.7 mb - 0.00 in0.0 mm 0.00 in0.0 mm
12:52 AM 41.4°F5.2°C 37.6°F3.1°C 86% Calm Calm -- 30.17 in1021.7 mb - 0.00 in0.0 mm 0.00 in0.0 mm
12:47 AM 41.4°F5.2°C 37.6°F3.1°C 86% Calm Calm -- 30.17 in1021.7 mb - 0.00 in0.0 mm 0.00 in0.0 mm
12:42 AM 41.5°F5.3°C 37.6°F3.1°C 86% Calm Calm -- 30.17 in1021.7 mb - 0.00 in0.0 mm 0.00 in0.0 mm
12:37 AM 41.5°F5.3°C 37.6°F3.1°C 86% 0.9 mph ESE1.4 kmh ESE -- 30.17 in1021.7 mb - 0.00 in0.0 mm 0.00 in0.0 mm
12:32 AM 41.5°F5.3°C 37.6°F3.1°C 86% 0.9 mph NNE1.4 kmh NNE -- 30.17 in1021.7 mb - 0.00 in0.0 mm 0.00 in0.0 mm
12:27 AM 41.5°F5.3°C 37.4°F3.0°C 85% Calm Calm -- 30.17 in1021.7 mb - 0.00 in0.0 mm 0.00 in0.0 mm
12:22 AM 41.5°F5.3°C 37.4°F3.0°C 85% Calm Calm -- 30.17 in1021.7 mb - 0.00 in0.0 mm 0.00 in0.0 mm
12:17 AM 41.7°F5.4°C 37.6°F3.1°C 85% Calm Calm -- 30.17 in1021.7 mb - 0.00 in0.0 mm 0.00 in0.0 mm
12:12 AM 41.7°F5.4°C 37.6°F3.1°C 85% Calm Calm -- 30.17 in1021.7 mb - 0.00 in0.0 mm 0.00 in0.0 mm
12:07 AM 41.9°F5.5°C 37.8°F3.2°C 85% Calm Calm -- 30.18 in1022.0 mb - 0.00 in0.0 mm 0.00 in0.0 mm
12:02 AM 42.1°F5.6°C 37.6°F3.1°C 84% Calm Calm -- 30.18 in1022.0 mb - 0.00 in0.0 mm 0.00 in0.0 mm